Startpagina
METAR-TAF:

METAR-TAF

Vliegvelden :

Chinandega, Nicaragua

breedte: 12-38N, lengte: 087-08W, hoogte: 53 m

Actueel weer

Dit bericht is 8 uur en het 55 minuten geleden gemaakt, om 23:00 UTC
Wind 4 kt uit het westzuidwesten
Temperatuur 28°C
Vochtigheid 79%
Druk 1011 hPa
Zicht: 6000 m
Weinig wolken op 2400 ft, Cumulonimbus.
in de omgeving, regen

METAR: MNCH 202300Z 24004KT 6000 VCRA FEW024CB SCT25TCU 28/24 Q1011 CBRA/NE/E TCURA/N/NW

Tijdstip: 01:55 (07:55 UTC)


TAF: ontbreekt

Waarnemingen en weersverwachtingen van meer dan 4000 vliegvelden (METAR en TAF).

De beschikbare stations zijn de gele en rode punten op de kaart.

Ga met uw muis naar het station om de naam te zien.

Klik dan om waarnemingen en weersverwachtingen te zien.

kaart wijzigen: klik op de groene knoppen met een zwart kruis om in te zoomen, op de groene knop met een streepje om uit te zoomen of op de groene pijlen voor aangrenzende kaarten.


METAR-TAF: